Elk River — WDE9599 — position and weather

sailwx.info

Track history (hours):
 
Tides and Currents Weather Stations Pressure Air Temp Water Temp Dewpoint Dewpoint Depression Visibility Wind Speed Wind Dir Waves Ship Positions

Elk River

Owner: Vane Line Bunkering, Inc., Philadelphia, PA. More information available from US FCC via Universal Licensing System and Coast Guard Vessel Documentation Center.

Last reported at 2018-Jun-25 00:00 UTC. Time now 2018-Jun-25 00:26 UTC.
Position N 39°54' W 075°12'.

Length 38 m; draft 4 m.

Type: Towing. MMSI: 367419080.

Date/timePositionNaut miles runAvg speedWind from/ knotsBaromVisibWave heightAir tempDewpointWater temp
2018-Jun-25 00:00N 39°54' W 075°12'0 0.0
2018-Jun-24 23:30N 39°54' W 075°12'0 0.0
2018-Jun-24 22:59N 39°54' W 075°12'0 0.0
2018-Jun-24 22:30N 39°54' W 075°12'0 0.0
2018-Jun-24 22:00N 39°54' W 075°12'0 0.0
2018-Jun-24 21:30N 39°54' W 075°12'0 0.0
2018-Jun-24 21:00N 39°54' W 075°12'0 0.0
2018-Jun-24 20:30N 39°54' W 075°12'0 0.0
2018-Jun-24 20:00N 39°54' W 075°12'0 0.0
2018-Jun-24 19:30N 39°54' W 075°12'0 0.0
2018-Jun-24 19:00N 39°54' W 075°12'0 0.0
2018-Jun-24 18:30N 39°54' W 075°12'0 0.0
2018-Jun-24 18:00N 39°54' W 075°12'0 0.0
2018-Jun-24 17:30N 39°54' W 075°12'0 0.0
2018-Jun-24 17:00N 39°54' W 075°12'0 0.0
2018-Jun-24 16:30N 39°54' W 075°12'0 0.0
2018-Jun-24 16:00N 39°54' W 075°12'0 0.0
2018-Jun-24 15:30N 39°54' W 075°12'0 0.0
2018-Jun-24 15:00N 39°54' W 075°12'0 0.0
2018-Jun-24 14:30N 39°54' W 075°12'0 0.0
2018-Jun-24 14:00N 39°54' W 075°12'0 0.0
2018-Jun-24 13:30N 39°54' W 075°12'0 0.0
2018-Jun-24 13:00N 39°54' W 075°12'0 0.0
2018-Jun-24 12:30N 39°54' W 075°12'0 0.0
2018-Jun-24 12:00N 39°54' W 075°12'0 0.0
2018-Jun-24 11:30N 39°54' W 075°12'0 0.0
2018-Jun-24 11:00N 39°54' W 075°12'0 0.0
2018-Jun-24 10:30N 39°54' W 075°12'0 0.0
2018-Jun-24 10:00N 39°54' W 075°12'0 0.0
2018-Jun-24 09:30N 39°54' W 075°12'0 0.0
2018-Jun-24 09:00N 39°54' W 075°12'0 0.0
2018-Jun-24 08:30N 39°54' W 075°12'0 0.0
2018-Jun-24 08:00N 39°54' W 075°12'0 0.0
2018-Jun-24 07:30N 39°54' W 075°12'0 0.0
2018-Jun-24 07:00N 39°54' W 075°12'0 0.0
2018-Jun-24 06:30N 39°54' W 075°12'0 0.0
2018-Jun-24 06:00N 39°54' W 075°12'0 0.0
2018-Jun-24 05:30N 39°54' W 075°12'0 0.0
2018-Jun-24 05:00N 39°54' W 075°12'0 0.0
2018-Jun-24 04:30N 39°54' W 075°12'0 0.2
2018-Jun-24 04:00N 39°53' W 075°12'2 3.4
2018-Jun-24 03:30N 39°53' W 075°10'2 3.4
2018-Jun-24 03:00N 39°53' W 075°12'0 0.3
2018-Jun-24 02:30N 39°53' W 075°12'0 0.0
2018-Jun-24 02:00N 39°53' W 075°12'1 1.2
2018-Jun-24 01:31N 39°53' W 075°11'3 5.4
2018-Jun-24 01:00N 39°54' W 075°08'3 5.7
2018-Jun-24 00:30N 39°53' W 075°12'1 1.2
2018-Jun-24 00:00N 39°54' W 075°12'0 0.0
2018-Jun-23 23:30N 39°54' W 075°12'1 1.2
2018-Jun-23 23:00N 39°54' W 075°12'0 0.0
2018-Jun-23 22:31N 39°54' W 075°12'0 0.0
2018-Jun-23 22:00N 39°54' W 075°12'0 0.0
2018-Jun-23 21:30N 39°54' W 075°12'0 0.0
2018-Jun-23 21:01N 39°54' W 075°12'0 0.0
2018-Jun-23 20:30N 39°54' W 075°12'0 0.0
2018-Jun-23 20:00N 39°54' W 075°12'0 0.0
2018-Jun-23 19:30N 39°54' W 075°12'0 0.0
2018-Jun-23 19:01N 39°54' W 075°12'0 0.0
2018-Jun-23 18:30N 39°54' W 075°12'0 0.0
2018-Jun-23 18:00N 39°54' W 075°12'1 2.8
2018-Jun-23 17:31N 39°53' W 075°10'0 0.6
2018-Jun-23 17:00N 39°53' W 075°10'2 3.4
2018-Jun-23 16:30N 39°53' W 075°12'0 0.6
2018-Jun-23 16:00N 39°54' W 075°12'0 0.0
2018-Jun-23 15:31N 39°54' W 075°12'0 0.0
2018-Jun-23 15:00N 39°54' W 075°12'0 0.0
2018-Jun-23 14:31N 39°54' W 075°12'0 0.0
2018-Jun-23 14:00N 39°54' W 075°12'0 0.0
2018-Jun-23 13:30N 39°54' W 075°12'0 0.5
2018-Jun-23 13:00N 39°54' W 075°12'0 0.5
2018-Jun-23 12:30N 39°54' W 075°12'0 0.3
2018-Jun-23 12:00N 39°53' W 075°12'2 3.1
2018-Jun-23 11:31N 39°55' W 075°13'1 1.4
2018-Jun-23 11:00N 39°55' W 075°12'0 0.0
2018-Jun-23 10:30N 39°55' W 075°12'1 2.5
2018-Jun-23 10:00N 39°54' W 075°12'1 1.3
2018-Jun-23 09:30N 39°54' W 075°12'0 0.0
2018-Jun-23 09:00N 39°54' W 075°12'0 0.0
2018-Jun-23 08:30N 39°54' W 075°12'0 0.0
2018-Jun-23 08:00N 39°54' W 075°12'0 0.0
2018-Jun-23 07:30N 39°54' W 075°12'0 0.0
2018-Jun-23 07:00N 39°54' W 075°12'0 0.0
2018-Jun-23 06:30N 39°54' W 075°12'0 0.0
2018-Jun-23 06:01N 39°54' W 075°12'0 0.0
2018-Jun-23 05:30N 39°54' W 075°12'0 0.0
2018-Jun-23 05:00N 39°54' W 075°12'0 0.0
2018-Jun-23 04:31N 39°54' W 075°12'0 0.0
2018-Jun-23 04:00N 39°54' W 075°12'0 0.0
2018-Jun-23 03:30N 39°54' W 075°12'0 0.0
2018-Jun-23 03:00N 39°54' W 075°12'0 0.0
2018-Jun-23 02:30N 39°54' W 075°12'0 0.0
2018-Jun-23 02:00N 39°54' W 075°12'0 0.0
2018-Jun-23 01:30N 39°54' W 075°12'0 0.0
2018-Jun-23 01:00N 39°54' W 075°12'0 0.0
2018-Jun-23 00:30N 39°54' W 075°12'0 0.0
2018-Jun-23 00:00N 39°54' W 075°12'0 0.0
2018-Jun-22 23:30N 39°54' W 075°12'0 0.0
2018-Jun-22 23:00N 39°54' W 075°12'2 3.0
2018-Jun-22 22:30N 39°55' W 075°12'1 1.6
2018-Jun-22 22:00N 39°54' W 075°13'1 2.4
2018-Jun-22 21:30N 39°54' W 075°12'0 0.5
2018-Jun-22 21:00N 39°53' W 075°12'1 1.2
2018-Jun-22 20:30N 39°54' W 075°12'0 0.0
2018-Jun-22 20:00N 39°54' W 075°12'0 0.0
2018-Jun-22 19:30N 39°54' W 075°12'0 0.0
2018-Jun-22 19:00N 39°54' W 075°12'0 0.0
2018-Jun-22 18:30N 39°54' W 075°12'0 0.0
2018-Jun-22 17:59N 39°54' W 075°12'0 0.0
2018-Jun-22 17:30N 39°54' W 075°12'0 0.0
2018-Jun-22 17:00N 39°54' W 075°12'0 0.0
2018-Jun-22 16:30N 39°54' W 075°12'0 0.0
2018-Jun-22 15:58N 39°54' W 075°12'0 0.0
2018-Jun-22 15:29N 39°54' W 075°12'0 0.0
2018-Jun-22 15:00N 39°54' W 075°12'0 0.0
2018-Jun-22 14:30N 39°54' W 075°12'0 0.0
2018-Jun-22 14:00N 39°54' W 075°12'0 0.0
2018-Jun-22 13:30N 39°54' W 075°12'0 0.0
2018-Jun-22 12:53N 39°54' W 075°12'0 0.0
2018-Jun-22 12:29N 39°54' W 075°12'0 0.0
2018-Jun-22 12:00N 39°54' W 075°12'0 0.0
2018-Jun-22 11:30N 39°54' W 075°12'0 0.0
2018-Jun-22 10:59N 39°54' W 075°12'0 0.0
2018-Jun-22 10:30N 39°54' W 075°12'0 0.0
2018-Jun-22 10:00N 39°54' W 075°12'0 0.0
2018-Jun-22 09:30N 39°54' W 075°12'0 0.0
2018-Jun-22 09:00N 39°54' W 075°12'0 0.0
2018-Jun-22 08:30N 39°54' W 075°12'0 0.0
2018-Jun-22 08:00N 39°54' W 075°12'0 0.0
2018-Jun-22 07:30N 39°54' W 075°12'0 0.0
2018-Jun-22 07:00N 39°54' W 075°12'0 0.0
2018-Jun-22 06:29N 39°54' W 075°12'0 0.0
2018-Jun-22 06:00N 39°54' W 075°12'0 0.0
2018-Jun-22 05:29N 39°54' W 075°12'0 0.0
2018-Jun-22 05:00N 39°54' W 075°12'0 0.0
2018-Jun-22 04:26N 39°54' W 075°12'0 0.0
2018-Jun-22 03:57N 39°54' W 075°12'0 0.0
2018-Jun-22 03:30N 39°54' W 075°12'0 0.0
2018-Jun-22 03:00N 39°54' W 075°12'0 0.0
2018-Jun-22 02:30N 39°54' W 075°12'0 0.0
2018-Jun-22 02:00N 39°54' W 075°12'0 0.0
2018-Jun-22 01:30N 39°54' W 075°12'0 0.0
2018-Jun-22 00:59N 39°54' W 075°12'0 0.0
2018-Jun-22 00:29N 39°54' W 075°12'0 0.0
2018-Jun-21 23:59N 39°54' W 075°12'0 0.0
2018-Jun-21 23:31N 39°54' W 075°12'0 0.0
2018-Jun-21 23:00N 39°54' W 075°12'0 0.0
2018-Jun-21 22:30N 39°54' W 075°12'0 0.0
2018-Jun-21 21:49N 39°54' W 075°12'0 0.0
2018-Jun-21 21:30N 39°54' W 075°12'0 0.0
2018-Jun-21 20:33N 39°54' W 075°12'0 0.0
2018-Jun-21 20:26N 39°54' W 075°12'0 0.0
2018-Jun-21 20:00N 39°54' W 075°12'0 0.0
2018-Jun-21 19:30N 39°54' W 075°12'0 0.1
2018-Jun-21 19:00N 39°54' W 075°12'0 0.1
2018-Jun-21 18:30N 39°54' W 075°12'0 1.0
2018-Jun-21 18:00N 39°54' W 075°12'0 0.9
2018-Jun-21 17:30N 39°53' W 075°12'0 0.8
2018-Jun-21 17:01N 39°54' W 075°12'0 0.1
2018-Jun-21 16:31N 39°54' W 075°12'0 0.0
2018-Jun-21 16:00N 39°54' W 075°12'0 0.0
2018-Jun-21 15:30N 39°54' W 075°12'0 0.0
2018-Jun-21 15:01N 39°54' W 075°12'1 1.9
2018-Jun-21 14:31N 39°53' W 075°12'1 2.0
2018-Jun-21 14:00N 39°54' W 075°12'0 0.0
2018-Jun-21 13:30N 39°54' W 075°12'0 0.0
2018-Jun-21 13:00N 39°54' W 075°12'0 0.0
2018-Jun-21 12:30N 39°54' W 075°12'0 0.0
2018-Jun-21 12:00N 39°54' W 075°12'0 0.0
2018-Jun-21 11:30N 39°54' W 075°12'0 0.0
2018-Jun-21 11:00N 39°54' W 075°12'0 0.0
2018-Jun-21 10:30N 39°54' W 075°12'0 0.0
2018-Jun-21 10:00N 39°54' W 075°12'0 0.0
2018-Jun-21 09:30N 39°54' W 075°12'0 0.0
2018-Jun-21 09:00N 39°54' W 075°12'0 0.0
2018-Jun-21 08:30N 39°54' W 075°12'0 0.0
2018-Jun-21 08:00N 39°54' W 075°12'0 0.0
2018-Jun-21 07:30N 39°54' W 075°12'0 0.0
2018-Jun-21 07:00N 39°54' W 075°12'0 0.0
2018-Jun-21 06:30N 39°54' W 075°12'0 0.0
2018-Jun-21 06:00N 39°54' W 075°12'0 0.0
2018-Jun-21 05:30N 39°54' W 075°12'0 0.0
2018-Jun-21 05:00N 39°54' W 075°12'0 0.0
2018-Jun-21 04:30N 39°54' W 075°12'0 0.0
2018-Jun-21 04:00N 39°54' W 075°12'0 0.0
2018-Jun-21 03:30N 39°54' W 075°12'0 0.0
2018-Jun-21 03:01N 39°54' W 075°12'0 0.0
2018-Jun-21 02:30N 39°54' W 075°12'0 0.0
2018-Jun-21 02:00N 39°54' W 075°12'0 0.0
2018-Jun-21 01:30N 39°54' W 075°12'0 0.5
2018-Jun-21 01:00N 39°54' W 075°12'0 0.7
2018-Jun-21 00:31N 39°53' W 075°12'0 0.0
2018-Jun-21 00:00N 39°53' W 075°12'0 0.0
2018-Jun-20 23:30N 39°53' W 075°12'0 0.0
2018-Jun-20 23:00N 39°53' W 075°12'0 0.0
2018-Jun-20 22:30N 39°53' W 075°12'0 0.0
2018-Jun-20 22:01N 39°53' W 075°12'0 0.0
2018-Jun-20 21:30N 39°53' W 075°12'0 0.0
2018-Jun-20 21:00N 39°53' W 075°12'0 0.1
2018-Jun-20 20:30N 39°53' W 075°12'2 3.1
2018-Jun-20 20:01N 39°53' W 075°10'1 2.7
2018-Jun-20 19:30N 39°54' W 075°08'0 0.0
2018-Jun-20 19:00N 39°54' W 075°08'3 5.3
2018-Jun-20 18:31N 39°54' W 075°12'2 3.0
2018-Jun-20 18:00N 39°52' W 075°13'2 3.0
2018-Jun-20 17:31N 39°54' W 075°12'1 1.3
2018-Jun-20 17:00N 39°54' W 075°12'0 0.0
2018-Jun-20 16:30N 39°54' W 075°12'0 0.0
2018-Jun-20 16:01N 39°54' W 075°12'0 0.0
2018-Jun-20 15:31N 39°54' W 075°12'0 0.1
2018-Jun-20 15:01N 39°54' W 075°12'3 6.5
2018-Jun-20 14:31N 39°51' W 075°15'4 8.0
2018-Jun-20 14:01N 39°51' W 075°20'4 7.9
2018-Jun-20 13:30N 39°49' W 075°24'4 8.6
2018-Jun-20 13:00N 39°46' W 075°28'4 8.7
2018-Jun-20 12:30N 39°42' W 075°31'4 8.9
2018-Jun-20 12:00N 39°38' W 075°34'4 8.2
2018-Jun-20 11:30N 39°34' W 075°33'4 7.2
2018-Jun-20 11:00N 39°33' W 075°38'4 7.5
2018-Jun-20 10:30N 39°33' W 075°42'4 7.7
2018-Jun-20 10:00N 39°32' W 075°47'3 6.0
2018-Jun-20 09:30N 39°32' W 075°51'4 8.4
2018-Jun-20 09:00N 39°30' W 075°56'5 9.5
2018-Jun-20 08:29N 39°26' W 076°00'5 9.7
2018-Jun-20 08:00N 39°23' W 076°05'510.0
2018-Jun-20 07:30N 39°21' W 076°11'5 9.6
2018-Jun-20 06:58N 39°17' W 076°15'8 9.6
2018-Jun-20 06:10N 39°12' W 076°23'1 8.5
2018-Jun-20 06:00N 39°11' W 076°24'4 8.8
2018-Jun-20 05:30N 39°12' W 076°30'4 8.7
2018-Jun-20 05:01N 39°15' W 076°34'0 0.0
2018-Jun-20 04:30N 39°15' W 076°34'0 0.1
2018-Jun-20 04:00N 39°15' W 076°34'3 6.2
2018-Jun-20 03:30N 39°13' W 076°31'4 7.9
2018-Jun-20 03:00N 39°11' W 076°27'4 8.0
2018-Jun-20 02:30N 39°09' W 076°22'3 6.7
2018-Jun-20 02:00N 39°10' W 076°18'11 8.3
2018-Jun-20 00:45N 39°20' W 076°12'2 9.0
2018-Jun-20 00:30N 39°21' W 076°10'5 9.1
2018-Jun-20 00:00N 39°23' W 076°05'4 8.8
2018-Jun-19 23:30N 39°26' W 076°00'4 8.9
2018-Jun-19 23:00N 39°29' W 075°56'5 9.0
2018-Jun-19 22:30N 39°32' W 075°51'4 8.6
2018-Jun-19 22:00N 39°32' W 075°46'4 8.4
2018-Jun-19 21:30N 39°33' W 075°40'4 7.9
2018-Jun-19 21:00N 39°33' W 075°35'2 4.6
2018-Jun-19 20:31N 39°35' W 075°34'3 5.3
2018-Jun-19 20:00N 39°38' W 075°34'3 6.1
2018-Jun-19 19:30N 39°40' W 075°32'3 6.2
2018-Jun-19 19:00N 39°43' W 075°30'3 6.7
2018-Jun-19 18:30N 39°46' W 075°28'4 7.5
2018-Jun-19 18:00N 39°49' W 075°25'4 8.8
2018-Jun-19 17:30N 39°51' W 075°20'4 9.0
2018-Jun-19 17:01N 39°52' W 075°14'3 5.7
2018-Jun-19 16:31N 39°54' W 075°12'0 0.1
2018-Jun-19 16:01N 39°54' W 075°12'0 0.0
2018-Jun-19 15:30N 39°54' W 075°12'0 0.0
2018-Jun-19 15:00N 39°54' W 075°12'0 0.0
2018-Jun-19 14:30N 39°54' W 075°12'0 0.0
2018-Jun-19 14:01N 39°54' W 075°12'0 0.0
2018-Jun-19 13:31N 39°54' W 075°12'0 0.0
2018-Jun-19 13:00N 39°54' W 075°12'0 0.0
2018-Jun-19 12:30N 39°54' W 075°12'0 0.0
2018-Jun-19 12:01N 39°54' W 075°12'0 0.0
2018-Jun-19 11:31N 39°54' W 075°12'0 0.0
2018-Jun-19 11:00N 39°54' W 075°12'0 0.0
2018-Jun-19 10:31N 39°54' W 075°12'0 0.0
2018-Jun-19 10:00N 39°54' W 075°12'0 0.0
2018-Jun-19 09:30N 39°54' W 075°12'0 0.0
2018-Jun-19 09:01N 39°54' W 075°12'0 0.0
2018-Jun-19 08:31N 39°54' W 075°12'1 1.2
2018-Jun-19 08:01N 39°54' W 075°12'1 1.2
2018-Jun-19 07:30N 39°54' W 075°12'1 1.4
2018-Jun-19 07:00N 39°54' W 075°12'1 1.5
2018-Jun-19 06:31N 39°53' W 075°12'5 9.0
2018-Jun-19 06:00N 39°51' W 075°17'5 8.9
2018-Jun-19 05:30N 39°50' W 075°22'4 8.7
2018-Jun-19 04:59N 39°47' W 075°27'4 8.3
2018-Jun-19 04:30N 39°44' W 075°30'4 7.7
2018-Jun-19 04:00N 39°40' W 075°32'4 7.3
2018-Jun-19 03:30N 39°37' W 075°35'4 7.2
2018-Jun-19 03:00N 39°34' W 075°33'5 9.5
2018-Jun-19 02:30N 39°33' W 075°39'41 7.4
2018-Jun-18 20:57N 39°10' W 076°22'4 8.5
2018-Jun-18 20:30N 39°11' W 076°27'4 8.8
2018-Jun-18 20:00N 39°13' W 076°32'2 3.6
2018-Jun-18 19:31N 39°14' W 076°34'1 1.1
2018-Jun-18 19:00N 39°15' W 076°34'0 0.0
2018-Jun-18 18:30N 39°15' W 076°34'0 0.0
2018-Jun-18 18:00N 39°15' W 076°34'0 0.0
2018-Jun-18 17:30N 39°15' W 076°34'0 0.0
2018-Jun-18 17:00N 39°15' W 076°34'0 0.0
2018-Jun-18 16:30N 39°15' W 076°34'0 0.0
2018-Jun-18 16:00N 39°15' W 076°34'0 0.0
2018-Jun-18 15:30N 39°15' W 076°34'0 0.0
2018-Jun-18 15:00N 39°15' W 076°34'0 0.0
2018-Jun-18 14:30N 39°15' W 076°34'0 0.0
2018-Jun-18 14:00N 39°15' W 076°34'0 0.0
2018-Jun-18 13:30N 39°15' W 076°34'0 0.9
2018-Jun-18 13:01N 39°15' W 076°34'0 0.8
2018-Jun-18 12:30N 39°15' W 076°34'0 0.0
2018-Jun-18 12:00N 39°15' W 076°34'0 0.0
2018-Jun-18 11:29N 39°15' W 076°34'1 1.3
2018-Jun-18 11:00N 39°15' W 076°34'0 0.8
2018-Jun-18 10:30N 39°14' W 076°34'2 5.1
2018-Jun-18 10:00N 39°13' W 076°31'4 7.4
2018-Jun-18 09:30N 39°11' W 076°27'4 7.3
2018-Jun-18 08:57N 39°09' W 076°22'3 6.0
2018-Jun-18 08:24N 39°10' W 076°18'3 7.4
2018-Jun-18 07:58N 39°13' W 076°15'5 7.3
2018-Jun-18 07:20N 39°17' W 076°14'17 6.9
2018-Jun-18 04:56N 39°28' W 075°58'3 6.9
2018-Jun-18 04:28N 39°30' W 075°55'8 6.0
2018-Jun-18 03:05N 39°32' W 075°44'1 6.2
2018-Jun-18 02:59N 39°33' W 075°43'3 6.1
2018-Jun-18 02:30N 39°33' W 075°40'3 6.0
2018-Jun-18 02:00N 39°33' W 075°36'3 5.0
2018-Jun-18 01:30N 39°35' W 075°34'4 8.7
2018-Jun-18 01:00N 39°40' W 075°33'5 9.9
2018-Jun-18 00:30N 39°44' W 075°30'5 9.5
2018-Jun-17 23:59N 39°48' W 075°26'5 9.6
2018-Jun-17 23:30N 39°51' W 075°21'4 8.8
2018-Jun-17 23:00N 39°51' W 075°15'4 8.1
2018-Jun-17 22:30N 39°53' W 075°11'3 6.1
2018-Jun-17 22:00N 39°55' W 075°08'3 6.2
2018-Jun-17 21:30N 39°58' W 075°07'1 2.1
2018-Jun-17 21:00N 39°59' W 075°06'0 0.0
2018-Jun-17 20:30N 39°59' W 075°06'0 0.0
2018-Jun-17 20:01N 39°59' W 075°06'0 0.0
2018-Jun-17 19:31N 39°59' W 075°06'0 0.0
2018-Jun-17 19:00N 39°59' W 075°06'0 0.0
2018-Jun-17 18:31N 39°59' W 075°06'0 0.0
2018-Jun-17 18:00N 39°59' W 075°06'0 0.0
2018-Jun-17 17:30N 39°59' W 075°06'0 0.0
2018-Jun-17 17:01N 39°59' W 075°06'0 0.0
2018-Jun-17 16:30N 39°59' W 075°06'0 0.0
2018-Jun-17 16:00N 39°59' W 075°06'0 0.0
2018-Jun-17 15:30N 39°59' W 075°06'0 0.0
2018-Jun-17 15:00N 39°59' W 075°06'0 0.0
2018-Jun-17 14:30N 39°59' W 075°06'0 0.0
2018-Jun-17 14:01N 39°59' W 075°06'0 0.0
2018-Jun-17 13:30N 39°59' W 075°06'0 0.0
2018-Jun-17 13:00N 39°59' W 075°06'0 0.0
2018-Jun-17 12:30N 39°59' W 075°06'0 0.0
2018-Jun-17 12:00N 39°59' W 075°06'0 0.0
2018-Jun-17 11:30N 39°59' W 075°06'0 0.0
2018-Jun-17 11:00N 39°59' W 075°06'0 0.0
2018-Jun-17 10:30N 39°59' W 075°06'0 0.0
2018-Jun-17 10:00N 39°59' W 075°06'0 0.0
2018-Jun-17 09:30N 39°59' W 075°06'0 0.0
2018-Jun-17 09:00N 39°59' W 075°06'0 0.0
2018-Jun-17 08:30N 39°59' W 075°06'0 0.0
2018-Jun-17 08:01N 39°59' W 075°06'0 0.0
2018-Jun-17 07:31N 39°59' W 075°06'0 0.0
2018-Jun-17 07:01N 39°59' W 075°06'0 0.0
2018-Jun-17 06:30N 39°59' W 075°06'0 0.0
2018-Jun-17 06:01N 39°59' W 075°06'3 6.8
2018-Jun-17 05:30N 39°56' W 075°08'3 6.4
2018-Jun-17 05:01N 39°53' W 075°10'2 4.4
2018-Jun-17 04:30N 39°54' W 075°12'0 0.0
2018-Jun-17 04:00N 39°54' W 075°12'0 0.0
2018-Jun-17 03:31N 39°54' W 075°12'0 0.0
2018-Jun-17 03:01N 39°54' W 075°12'0 0.0
2018-Jun-17 02:31N 39°54' W 075°12'0 0.0
2018-Jun-17 02:00N 39°54' W 075°12'0 0.0
2018-Jun-17 01:30N 39°54' W 075°12'0 0.0
2018-Jun-17 01:01N 39°54' W 075°12'0 0.0
2018-Jun-17 00:30N 39°54' W 075°12'0 0.0
2018-Jun-17 00:01N 39°54' W 075°12'0 0.0
2018-Jun-16 23:30N 39°54' W 075°12'0 0.0
2018-Jun-16 23:00N 39°54' W 075°12'0 0.0
2018-Jun-16 22:30N 39°54' W 075°12'0 0.0
2018-Jun-16 22:00N 39°54' W 075°12'0 0.0
2018-Jun-16 21:30N 39°54' W 075°12'0 0.0
2018-Jun-16 21:00N 39°54' W 075°12'0 0.0
2018-Jun-16 20:30N 39°54' W 075°12'0 0.0
2018-Jun-16 20:00N 39°54' W 075°12'0 0.0
2018-Jun-16 19:30N 39°54' W 075°12'0 0.0
2018-Jun-16 19:00N 39°54' W 075°12'0 0.0
2018-Jun-16 18:30N 39°54' W 075°12'0 0.0
2018-Jun-16 18:00N 39°54' W 075°12'0 0.0
2018-Jun-16 17:30N 39°54' W 075°12'0 0.0
2018-Jun-16 17:00N 39°54' W 075°12'0 0.0
2018-Jun-16 16:30N 39°54' W 075°12'0 0.0
2018-Jun-16 16:00N 39°54' W 075°12'0 0.0
2018-Jun-16 15:30N 39°54' W 075°12'0 0.0
2018-Jun-16 15:00N 39°54' W 075°12'0 0.0
2018-Jun-16 14:30N 39°54' W 075°12'0 0.0
2018-Jun-16 14:00N 39°54' W 075°12'0 0.0
2018-Jun-16 13:31N 39°54' W 075°12'0 0.0
2018-Jun-16 13:00N 39°54' W 075°12'0 0.0
2018-Jun-16 12:30N 39°54' W 075°12'0 0.0
2018-Jun-16 12:00N 39°54' W 075°12'0 0.0
2018-Jun-16 11:30N 39°54' W 075°12'0 0.0
2018-Jun-16 11:00N 39°54' W 075°12'0 0.0
2018-Jun-16 10:30N 39°54' W 075°12'0 0.0
2018-Jun-16 10:00N 39°54' W 075°12'0 0.0
2018-Jun-16 09:30N 39°54' W 075°12'0 0.0
2018-Jun-16 09:00N 39°54' W 075°12'0 0.0
2018-Jun-16 08:30N 39°54' W 075°12'0 0.0
2018-Jun-16 08:00N 39°54' W 075°12'0 0.0
2018-Jun-16 07:30N 39°54' W 075°12'0 0.0
2018-Jun-16 07:00N 39°54' W 075°12'0 0.0
2018-Jun-16 06:30N 39°54' W 075°12'0 0.0
2018-Jun-16 06:00N 39°54' W 075°12'0 0.0
2018-Jun-16 05:30N 39°54' W 075°12'0 0.0
2018-Jun-16 05:00N 39°54' W 075°12'0 0.0
2018-Jun-16 04:30N 39°54' W 075°12'0 0.0
2018-Jun-16 04:00N 39°54' W 075°12'0 0.0
2018-Jun-16 03:30N 39°54' W 075°12'0 0.0
2018-Jun-16 03:01N 39°54' W 075°12'0 0.0
2018-Jun-16 02:31N 39°54' W 075°12'0 0.0
2018-Jun-16 02:00N 39°54' W 075°12'0 0.0
2018-Jun-16 01:30N 39°54' W 075°12'0 0.0
2018-Jun-16 01:01N 39°54' W 075°12'0 0.0
2018-Jun-16 00:30N 39°54' W 075°12'0 0.0
2018-Jun-16 00:00N 39°54' W 075°12'0 0.0
2018-Jun-15 23:30N 39°54' W 075°12'0 0.0
2018-Jun-15 23:00N 39°54' W 075°12'0 0.0
2018-Jun-15 22:30N 39°54' W 075°12'0 0.0
2018-Jun-15 22:01N 39°54' W 075°12'1 1.1
2018-Jun-15 21:31N 39°53' W 075°12'4 7.5
2018-Jun-15 21:00N 39°51' W 075°15'4 8.2
2018-Jun-15 20:30N 39°51' W 075°21'4 6.1
2018-Jun-15 19:54N 39°49' W 075°25'0 0.0
2018-Jun-15 19:30N 39°49' W 075°25'0 0.0
2018-Jun-15 19:01N 39°49' W 075°25'0 0.0
2018-Jun-15 18:30N 39°49' W 075°25'0 0.0
2018-Jun-15 18:00N 39°49' W 075°25'0 0.0
2018-Jun-15 17:30N 39°49' W 075°25'0 0.0
2018-Jun-15 17:00N 39°49' W 075°25'0 0.0
2018-Jun-15 16:30N 39°49' W 075°25'0 0.0
2018-Jun-15 16:00N 39°49' W 075°25'0 0.0
2018-Jun-15 15:30N 39°49' W 075°25'0 0.0
2018-Jun-15 15:01N 39°49' W 075°25'0 0.0
2018-Jun-15 14:30N 39°49' W 075°25'0 0.0
2018-Jun-15 14:01N 39°49' W 075°25'0 0.0
2018-Jun-15 13:30N 39°49' W 075°25'0 0.0
2018-Jun-15 13:00N 39°49' W 075°25'0 0.0
2018-Jun-15 12:30N 39°49' W 075°25'1 1.1
2018-Jun-15 12:00N 39°48' W 075°25'0 0.0
2018-Jun-15 11:30N 39°48' W 075°25'4 8.3
2018-Jun-15 11:00N 39°51' W 075°21'5 9.0
2018-Jun-15 10:30N 39°51' W 075°15'4 7.3
2018-Jun-15 10:01N 39°54' W 075°12'0 0.0
2018-Jun-15 09:30N 39°54' W 075°12'0 0.0
2018-Jun-15 09:00N 39°54' W 075°12'0 0.0
2018-Jun-15 08:30N 39°54' W 075°12'0 0.0
2018-Jun-15 08:00N 39°54' W 075°12'0 0.0
2018-Jun-15 07:30N 39°54' W 075°12'0 0.0
2018-Jun-15 07:00N 39°54' W 075°12'0 0.0
2018-Jun-15 06:30N 39°54' W 075°12'0 0.0
2018-Jun-15 06:00N 39°54' W 075°12'0 0.0
2018-Jun-15 05:30N 39°54' W 075°12'0 0.0
2018-Jun-15 05:00N 39°54' W 075°12'0 0.0
2018-Jun-15 04:30N 39°54' W 075°12'0 0.1
2018-Jun-15 04:00N 39°53' W 075°12'0 0.0
2018-Jun-15 03:30N 39°53' W 075°12'0 0.0
2018-Jun-15 03:00N 39°53' W 075°12'3 5.2
2018-Jun-15 02:30N 39°54' W 075°08'2 4.0
2018-Jun-15 02:00N 39°53' W 075°11'1 2.9
2018-Jun-15 01:30N 39°54' W 075°12'0 0.0
2018-Jun-15 01:00N 39°54' W 075°12'0 0.0
2018-Jun-15 00:30N 39°54' W 075°12'0 0.0
2018-Jun-15 00:00N 39°54' W 075°12'  
Track history (hours):
 
Tides and Currents Weather Stations Pressure Air Temp Water Temp Dewpoint Dewpoint Depression Visibility Wind Speed Wind Dir Waves Ship Positions

Elk River

Owner: Vane Line Bunkering, Inc., Philadelphia, PA. More information available from US FCC via Universal Licensing System and Coast Guard Vessel Documentation Center.

Last reported at 2018-Jun-25 00:00 UTC. Time now 2018-Jun-25 00:26 UTC.
Position N 39°54' W 075°12'.

Length 38 m; draft 4 m.

Type: Towing. MMSI: 367419080.

Date/timePositionNaut miles runAvg speedWind from/ knotsBaromVisibWave heightAir tempDewpointWater temp
2018-Jun-25 00:00N 39°54' W 075°12'0 0.0
2018-Jun-24 23:30N 39°54' W 075°12'0 0.0
2018-Jun-24 22:59N 39°54' W 075°12'0 0.0
2018-Jun-24 22:30N 39°54' W 075°12'0 0.0
2018-Jun-24 22:00N 39°54' W 075°12'0 0.0
2018-Jun-24 21:30N 39°54' W 075°12'0 0.0
2018-Jun-24 21:00N 39°54' W 075°12'0 0.0
2018-Jun-24 20:30N 39°54' W 075°12'0 0.0
2018-Jun-24 20:00N 39°54' W 075°12'0 0.0
2018-Jun-24 19:30N 39°54' W 075°12'0 0.0
2018-Jun-24 19:00N 39°54' W 075°12'0 0.0
2018-Jun-24 18:30N 39°54' W 075°12'0 0.0
2018-Jun-24 18:00N 39°54' W 075°12'0 0.0
2018-Jun-24 17:30N 39°54' W 075°12'0 0.0
2018-Jun-24 17:00N 39°54' W 075°12'0 0.0
2018-Jun-24 16:30N 39°54' W 075°12'0 0.0
2018-Jun-24 16:00N 39°54' W 075°12'0 0.0
2018-Jun-24 15:30N 39°54' W 075°12'0 0.0
2018-Jun-24 15:00N 39°54' W 075°12'0 0.0
2018-Jun-24 14:30N 39°54' W 075°12'0 0.0
2018-Jun-24 14:00N 39°54' W 075°12'0 0.0
2018-Jun-24 13:30N 39°54' W 075°12'0 0.0
2018-Jun-24 13:00N 39°54' W 075°12'0 0.0
2018-Jun-24 12:30N 39°54' W 075°12'0 0.0
2018-Jun-24 12:00N 39°54' W 075°12'0 0.0
2018-Jun-24 11:30N 39°54' W 075°12'0 0.0
2018-Jun-24 11:00N 39°54' W 075°12'0 0.0
2018-Jun-24 10:30N 39°54' W 075°12'0 0.0
2018-Jun-24 10:00N 39°54' W 075°12'0 0.0
2018-Jun-24 09:30N 39°54' W 075°12'0 0.0
2018-Jun-24 09:00N 39°54' W 075°12'0 0.0
2018-Jun-24 08:30N 39°54' W 075°12'0 0.0
2018-Jun-24 08:00N 39°54' W 075°12'0 0.0
2018-Jun-24 07:30N 39°54' W 075°12'0 0.0
2018-Jun-24 07:00N 39°54' W 075°12'0 0.0
2018-Jun-24 06:30N 39°54' W 075°12'0 0.0
2018-Jun-24 06:00N 39°54' W 075°12'0 0.0
2018-Jun-24 05:30N 39°54' W 075°12'0 0.0
2018-Jun-24 05:00N 39°54' W 075°12'0 0.0
2018-Jun-24 04:30N 39°54' W 075°12'0 0.2
2018-Jun-24 04:00N 39°53' W 075°12'2 3.4
2018-Jun-24 03:30N 39°53' W 075°10'2 3.4
2018-Jun-24 03:00N 39°53' W 075°12'0 0.3
2018-Jun-24 02:30N 39°53' W 075°12'0 0.0
2018-Jun-24 02:00N 39°53' W 075°12'1 1.2
2018-Jun-24 01:31N 39°53' W 075°11'3 5.4
2018-Jun-24 01:00N 39°54' W 075°08'3 5.7
2018-Jun-24 00:30N 39°53' W 075°12'1 1.2
2018-Jun-24 00:00N 39°54' W 075°12'0 0.0
2018-Jun-23 23:30N 39°54' W 075°12'1 1.2
2018-Jun-23 23:00N 39°54' W 075°12'0 0.0
2018-Jun-23 22:31N 39°54' W 075°12'0 0.0
2018-Jun-23 22:00N 39°54' W 075°12'0 0.0
2018-Jun-23 21:30N 39°54' W 075°12'0 0.0
2018-Jun-23 21:01N 39°54' W 075°12'0 0.0
2018-Jun-23 20:30N 39°54' W 075°12'0 0.0
2018-Jun-23 20:00N 39°54' W 075°12'0 0.0
2018-Jun-23 19:30N 39°54' W 075°12'0 0.0
2018-Jun-23 19:01N 39°54' W 075°12'0 0.0
2018-Jun-23 18:30N 39°54' W 075°12'0 0.0
2018-Jun-23 18:00N 39°54' W 075°12'1 2.8
2018-Jun-23 17:31N 39°53' W 075°10'0 0.6
2018-Jun-23 17:00N 39°53' W 075°10'2 3.4
2018-Jun-23 16:30N 39°53' W 075°12'0 0.6
2018-Jun-23 16:00N 39°54' W 075°12'0 0.0
2018-Jun-23 15:31N 39°54' W 075°12'0 0.0
2018-Jun-23 15:00N 39°54' W 075°12'0 0.0
2018-Jun-23 14:31N 39°54' W 075°12'0 0.0
2018-Jun-23 14:00N 39°54' W 075°12'0 0.0
2018-Jun-23 13:30N 39°54' W 075°12'0 0.5
2018-Jun-23 13:00N 39°54' W 075°12'0 0.5
2018-Jun-23 12:30N 39°54' W 075°12'0 0.3
2018-Jun-23 12:00N 39°53' W 075°12'2 3.1
2018-Jun-23 11:31N 39°55' W 075°13'1 1.4
2018-Jun-23 11:00N 39°55' W 075°12'0 0.0
2018-Jun-23 10:30N 39°55' W 075°12'1 2.5
2018-Jun-23 10:00N 39°54' W 075°12'1 1.3
2018-Jun-23 09:30N 39°54' W 075°12'0 0.0
2018-Jun-23 09:00N 39°54' W 075°12'0 0.0
2018-Jun-23 08:30N 39°54' W 075°12'0 0.0
2018-Jun-23 08:00N 39°54' W 075°12'0 0.0
2018-Jun-23 07:30N 39°54' W 075°12'0 0.0
2018-Jun-23 07:00N 39°54' W 075°12'0 0.0
2018-Jun-23 06:30N 39°54' W 075°12'0 0.0
2018-Jun-23 06:01N 39°54' W 075°12'0 0.0
2018-Jun-23 05:30N 39°54' W 075°12'0 0.0
2018-Jun-23 05:00N 39°54' W 075°12'0 0.0
2018-Jun-23 04:31N 39°54' W 075°12'0 0.0
2018-Jun-23 04:00N 39°54' W 075°12'0 0.0
2018-Jun-23 03:30N 39°54' W 075°12'0 0.0
2018-Jun-23 03:00N 39°54' W 075°12'0 0.0
2018-Jun-23 02:30N 39°54' W 075°12'0 0.0
2018-Jun-23 02:00N 39°54' W 075°12'0 0.0
2018-Jun-23 01:30N 39°54' W 075°12'0 0.0
2018-Jun-23 01:00N 39°54' W 075°12'0 0.0
2018-Jun-23 00:30N 39°54' W 075°12'0 0.0
2018-Jun-23 00:00N 39°54' W 075°12'0 0.0
2018-Jun-22 23:30N 39°54' W 075°12'0 0.0
2018-Jun-22 23:00N 39°54' W 075°12'2 3.0
2018-Jun-22 22:30N 39°55' W 075°12'1 1.6
2018-Jun-22 22:00N 39°54' W 075°13'1 2.4
2018-Jun-22 21:30N 39°54' W 075°12'0 0.5
2018-Jun-22 21:00N 39°53' W 075°12'1 1.2
2018-Jun-22 20:30N 39°54' W 075°12'0 0.0
2018-Jun-22 20:00N 39°54' W 075°12'0 0.0
2018-Jun-22 19:30N 39°54' W 075°12'0 0.0
2018-Jun-22 19:00N 39°54' W 075°12'0 0.0
2018-Jun-22 18:30N 39°54' W 075°12'0 0.0
2018-Jun-22 17:59N 39°54' W 075°12'0 0.0
2018-Jun-22 17:30N 39°54' W 075°12'0 0.0
2018-Jun-22 17:00N 39°54' W 075°12'0 0.0
2018-Jun-22 16:30N 39°54' W 075°12'0 0.0
2018-Jun-22 15:58N 39°54' W 075°12'0 0.0
2018-Jun-22 15:29N 39°54' W 075°12'0 0.0
2018-Jun-22 15:00N 39°54' W 075°12'0 0.0
2018-Jun-22 14:30N 39°54' W 075°12'0 0.0
2018-Jun-22 14:00N 39°54' W 075°12'0 0.0
2018-Jun-22 13:30N 39°54' W 075°12'0 0.0
2018-Jun-22 12:53N 39°54' W 075°12'0 0.0
2018-Jun-22 12:29N 39°54' W 075°12'0 0.0
2018-Jun-22 12:00N 39°54' W 075°12'0 0.0
2018-Jun-22 11:30N 39°54' W 075°12'0 0.0
2018-Jun-22 10:59N 39°54' W 075°12'0 0.0
2018-Jun-22 10:30N 39°54' W 075°12'0 0.0
2018-Jun-22 10:00N 39°54' W 075°12'0 0.0
2018-Jun-22 09:30N 39°54' W 075°12'0 0.0
2018-Jun-22 09:00N 39°54' W 075°12'0 0.0
2018-Jun-22 08:30N 39°54' W 075°12'0 0.0
2018-Jun-22 08:00N 39°54' W 075°12'0 0.0
2018-Jun-22 07:30N 39°54' W 075°12'0 0.0
2018-Jun-22 07:00N 39°54' W 075°12'0 0.0
2018-Jun-22 06:29N 39°54' W 075°12'0 0.0
2018-Jun-22 06:00N 39°54' W 075°12'0 0.0
2018-Jun-22 05:29N 39°54' W 075°12'0 0.0
2018-Jun-22 05:00N 39°54' W 075°12'0 0.0
2018-Jun-22 04:26N 39°54' W 075°12'0 0.0
2018-Jun-22 03:57N 39°54' W 075°12'0 0.0
2018-Jun-22 03:30N 39°54' W 075°12'0 0.0
2018-Jun-22 03:00N 39°54' W 075°12'0 0.0
2018-Jun-22 02:30N 39°54' W 075°12'0 0.0
2018-Jun-22 02:00N 39°54' W 075°12'0 0.0
2018-Jun-22 01:30N 39°54' W 075°12'0 0.0
2018-Jun-22 00:59N 39°54' W 075°12'0 0.0
2018-Jun-22 00:29N 39°54' W 075°12'0 0.0
2018-Jun-21 23:59N 39°54' W 075°12'0 0.0
2018-Jun-21 23:31N 39°54' W 075°12'0 0.0
2018-Jun-21 23:00N 39°54' W 075°12'0 0.0
2018-Jun-21 22:30N 39°54' W 075°12'0 0.0
2018-Jun-21 21:49N 39°54' W 075°12'0 0.0
2018-Jun-21 21:30N 39°54' W 075°12'0 0.0
2018-Jun-21 20:33N 39°54' W 075°12'0 0.0
2018-Jun-21 20:26N 39°54' W 075°12'0 0.0
2018-Jun-21 20:00N 39°54' W 075°12'0 0.0
2018-Jun-21 19:30N 39°54' W 075°12'0 0.1
2018-Jun-21 19:00N 39°54' W 075°12'0 0.1
2018-Jun-21 18:30N 39°54' W 075°12'0 1.0
2018-Jun-21 18:00N 39°54' W 075°12'0 0.9
2018-Jun-21 17:30N 39°53' W 075°12'0 0.8
2018-Jun-21 17:01N 39°54' W 075°12'0 0.1
2018-Jun-21 16:31N 39°54' W 075°12'0 0.0
2018-Jun-21 16:00N 39°54' W 075°12'0 0.0
2018-Jun-21 15:30N 39°54' W 075°12'0 0.0
2018-Jun-21 15:01N 39°54' W 075°12'1 1.9
2018-Jun-21 14:31N 39°53' W 075°12'1 2.0
2018-Jun-21 14:00N 39°54' W 075°12'0 0.0
2018-Jun-21 13:30N 39°54' W 075°12'0 0.0
2018-Jun-21 13:00N 39°54' W 075°12'0 0.0
2018-Jun-21 12:30N 39°54' W 075°12'0 0.0
2018-Jun-21 12:00N 39°54' W 075°12'0 0.0
2018-Jun-21 11:30N 39°54' W 075°12'0 0.0
2018-Jun-21 11:00N 39°54' W 075°12'0 0.0
2018-Jun-21 10:30N 39°54' W 075°12'0 0.0
2018-Jun-21 10:00N 39°54' W 075°12'0 0.0
2018-Jun-21 09:30N 39°54' W 075°12'0 0.0
2018-Jun-21 09:00N 39°54' W 075°12'0 0.0
2018-Jun-21 08:30N 39°54' W 075°12'0 0.0
2018-Jun-21 08:00N 39°54' W 075°12'0 0.0
2018-Jun-21 07:30N 39°54' W 075°12'0 0.0
2018-Jun-21 07:00N 39°54' W 075°12'0 0.0
2018-Jun-21 06:30N 39°54' W 075°12'0 0.0
2018-Jun-21 06:00N 39°54' W 075°12'0 0.0
2018-Jun-21 05:30N 39°54' W 075°12'0 0.0
2018-Jun-21 05:00N 39°54' W 075°12'0 0.0
2018-Jun-21 04:30N 39°54' W 075°12'0 0.0
2018-Jun-21 04:00N 39°54' W 075°12'0 0.0
2018-Jun-21 03:30N 39°54' W 075°12'0 0.0
2018-Jun-21 03:01N 39°54' W 075°12'0 0.0
2018-Jun-21 02:30N 39°54' W 075°12'0 0.0
2018-Jun-21 02:00N 39°54' W 075°12'0 0.0
2018-Jun-21 01:30N 39°54' W 075°12'0 0.5
2018-Jun-21 01:00N 39°54' W 075°12'0 0.7
2018-Jun-21 00:31N 39°53' W 075°12'0 0.0
2018-Jun-21 00:00N 39°53' W 075°12'0 0.0
2018-Jun-20 23:30N 39°53' W 075°12'0 0.0
2018-Jun-20 23:00N 39°53' W 075°12'0 0.0
2018-Jun-20 22:30N 39°53' W 075°12'0 0.0
2018-Jun-20 22:01N 39°53' W 075°12'0 0.0
2018-Jun-20 21:30N 39°53' W 075°12'0 0.0
2018-Jun-20 21:00N 39°53' W 075°12'0 0.1
2018-Jun-20 20:30N 39°53' W 075°12'2 3.1
2018-Jun-20 20:01N 39°53' W 075°10'1 2.7
2018-Jun-20 19:30N 39°54' W 075°08'0 0.0
2018-Jun-20 19:00N 39°54' W 075°08'3 5.3
2018-Jun-20 18:31N 39°54' W 075°12'2 3.0
2018-Jun-20 18:00N 39°52' W 075°13'2 3.0
2018-Jun-20 17:31N 39°54' W 075°12'1 1.3
2018-Jun-20 17:00N 39°54' W 075°12'0 0.0
2018-Jun-20 16:30N 39°54' W 075°12'0 0.0
2018-Jun-20 16:01N 39°54' W 075°12'0 0.0
2018-Jun-20 15:31N 39°54' W 075°12'0 0.1
2018-Jun-20 15:01N 39°54' W 075°12'3 6.5
2018-Jun-20 14:31N 39°51' W 075°15'4 8.0
2018-Jun-20 14:01N 39°51' W 075°20'4 7.9
2018-Jun-20 13:30N 39°49' W 075°24'4 8.6
2018-Jun-20 13:00N 39°46' W 075°28'4 8.7
2018-Jun-20 12:30N 39°42' W 075°31'4 8.9
2018-Jun-20 12:00N 39°38' W 075°34'4 8.2
2018-Jun-20 11:30N 39°34' W 075°33'4 7.2
2018-Jun-20 11:00N 39°33' W 075°38'4 7.5
2018-Jun-20 10:30N 39°33' W 075°42'4 7.7
2018-Jun-20 10:00N 39°32' W 075°47'3 6.0
2018-Jun-20 09:30N 39°32' W 075°51'4 8.4
2018-Jun-20 09:00N 39°30' W 075°56'5 9.5
2018-Jun-20 08:29N 39°26' W 076°00'5 9.7
2018-Jun-20 08:00N 39°23' W 076°05'510.0
2018-Jun-20 07:30N 39°21' W 076°11'5 9.6
2018-Jun-20 06:58N 39°17' W 076°15'8 9.6
2018-Jun-20 06:10N 39°12' W 076°23'1 8.5
2018-Jun-20 06:00N 39°11' W 076°24'4 8.8
2018-Jun-20 05:30N 39°12' W 076°30'4 8.7
2018-Jun-20 05:01N 39°15' W 076°34'0 0.0
2018-Jun-20 04:30N 39°15' W 076°34'0 0.1
2018-Jun-20 04:00N 39°15' W 076°34'3 6.2
2018-Jun-20 03:30N 39°13' W 076°31'4 7.9
2018-Jun-20 03:00N 39°11' W 076°27'4 8.0
2018-Jun-20 02:30N 39°09' W 076°22'3 6.7
2018-Jun-20 02:00N 39°10' W 076°18'11 8.3
2018-Jun-20 00:45N 39°20' W 076°12'2 9.0
2018-Jun-20 00:30N 39°21' W 076°10'5 9.1
2018-Jun-20 00:00N 39°23' W 076°05'4 8.8
2018-Jun-19 23:30N 39°26' W 076°00'4 8.9
2018-Jun-19 23:00N 39°29' W 075°56'5 9.0
2018-Jun-19 22:30N 39°32' W 075°51'4 8.6
2018-Jun-19 22:00N 39°32' W 075°46'4 8.4
2018-Jun-19 21:30N 39°33' W 075°40'4 7.9
2018-Jun-19 21:00N 39°33' W 075°35'2 4.6
2018-Jun-19 20:31N 39°35' W 075°34'3 5.3
2018-Jun-19 20:00N 39°38' W 075°34'3 6.1
2018-Jun-19 19:30N 39°40' W 075°32'3 6.2
2018-Jun-19 19:00N 39°43' W 075°30'3 6.7
2018-Jun-19 18:30N 39°46' W 075°28'4 7.5
2018-Jun-19 18:00N 39°49' W 075°25'4 8.8
2018-Jun-19 17:30N 39°51' W 075°20'4 9.0
2018-Jun-19 17:01N 39°52' W 075°14'3 5.7
2018-Jun-19 16:31N 39°54' W 075°12'0 0.1
2018-Jun-19 16:01N 39°54' W 075°12'0 0.0
2018-Jun-19 15:30N 39°54' W 075°12'0 0.0
2018-Jun-19 15:00N 39°54' W 075°12'0 0.0
2018-Jun-19 14:30N 39°54' W 075°12'0 0.0
2018-Jun-19 14:01N 39°54' W 075°12'0 0.0
2018-Jun-19 13:31N 39°54' W 075°12'0 0.0
2018-Jun-19 13:00N 39°54' W 075°12'0 0.0
2018-Jun-19 12:30N 39°54' W 075°12'0 0.0
2018-Jun-19 12:01N 39°54' W 075°12'0 0.0
2018-Jun-19 11:31N 39°54' W 075°12'0 0.0
2018-Jun-19 11:00N 39°54' W 075°12'0 0.0
2018-Jun-19 10:31N 39°54' W 075°12'0 0.0
2018-Jun-19 10:00N 39°54' W 075°12'0 0.0
2018-Jun-19 09:30N 39°54' W 075°12'0 0.0
2018-Jun-19 09:01N 39°54' W 075°12'0 0.0
2018-Jun-19 08:31N 39°54' W 075°12'1 1.2
2018-Jun-19 08:01N 39°54' W 075°12'1 1.2
2018-Jun-19 07:30N 39°54' W 075°12'1 1.4
2018-Jun-19 07:00N 39°54' W 075°12'1 1.5
2018-Jun-19 06:31N 39°53' W 075°12'5 9.0
2018-Jun-19 06:00N 39°51' W 075°17'5 8.9
2018-Jun-19 05:30N 39°50' W 075°22'4 8.7
2018-Jun-19 04:59N 39°47' W 075°27'4 8.3
2018-Jun-19 04:30N 39°44' W 075°30'4 7.7
2018-Jun-19 04:00N 39°40' W 075°32'4 7.3
2018-Jun-19 03:30N 39°37' W 075°35'4 7.2
2018-Jun-19 03:00N 39°34' W 075°33'5 9.5
2018-Jun-19 02:30N 39°33' W 075°39'41 7.4
2018-Jun-18 20:57N 39°10' W 076°22'4 8.5
2018-Jun-18 20:30N 39°11' W 076°27'4 8.8
2018-Jun-18 20:00N 39°13' W 076°32'2 3.6
2018-Jun-18 19:31N 39°14' W 076°34'1 1.1
2018-Jun-18 19:00N 39°15' W 076°34'0 0.0
2018-Jun-18 18:30N 39°15' W 076°34'0 0.0
2018-Jun-18 18:00N 39°15' W 076°34'0 0.0
2018-Jun-18 17:30N 39°15' W 076°34'0 0.0
2018-Jun-18 17:00N 39°15' W 076°34'0 0.0
2018-Jun-18 16:30N 39°15' W 076°34'0 0.0
2018-Jun-18 16:00N 39°15' W 076°34'0 0.0
2018-Jun-18 15:30N 39°15' W 076°34'0 0.0
2018-Jun-18 15:00N 39°15' W 076°34'0 0.0
2018-Jun-18 14:30N 39°15' W 076°34'0 0.0
2018-Jun-18 14:00N 39°15' W 076°34'0 0.0
2018-Jun-18 13:30N 39°15' W 076°34'0 0.9
2018-Jun-18 13:01N 39°15' W 076°34'0 0.8
2018-Jun-18 12:30N 39°15' W 076°34'0 0.0
2018-Jun-18 12:00N 39°15' W 076°34'0 0.0
2018-Jun-18 11:29N 39°15' W 076°34'1 1.3
2018-Jun-18 11:00N 39°15' W 076°34'0 0.8
2018-Jun-18 10:30N 39°14' W 076°34'2 5.1
2018-Jun-18 10:00N 39°13' W 076°31'4 7.4
2018-Jun-18 09:30N 39°11' W 076°27'4 7.3
2018-Jun-18 08:57N 39°09' W 076°22'3 6.0
2018-Jun-18 08:24N 39°10' W 076°18'3 7.4
2018-Jun-18 07:58N 39°13' W 076°15'5 7.3
2018-Jun-18 07:20N 39°17' W 076°14'17 6.9
2018-Jun-18 04:56N 39°28' W 075°58'3 6.9
2018-Jun-18 04:28N 39°30' W 075°55'8 6.0
2018-Jun-18 03:05N 39°32' W 075°44'1 6.2
2018-Jun-18 02:59N 39°33' W 075°43'3 6.1
2018-Jun-18 02:30N 39°33' W 075°40'3 6.0
2018-Jun-18 02:00N 39°33' W 075°36'3 5.0
2018-Jun-18 01:30N 39°35' W 075°34'4 8.7
2018-Jun-18 01:00N 39°40' W 075°33'5 9.9
2018-Jun-18 00:30N 39°44' W 075°30'5 9.5
2018-Jun-17 23:59N 39°48' W 075°26'5 9.6
2018-Jun-17 23:30N 39°51' W 075°21'4 8.8
2018-Jun-17 23:00N 39°51' W 075°15'4 8.1
2018-Jun-17 22:30N 39°53' W 075°11'3 6.1
2018-Jun-17 22:00N 39°55' W 075°08'3 6.2
2018-Jun-17 21:30N 39°58' W 075°07'1 2.1
2018-Jun-17 21:00N 39°59' W 075°06'0 0.0
2018-Jun-17 20:30N 39°59' W 075°06'0 0.0
2018-Jun-17 20:01N 39°59' W 075°06'0 0.0
2018-Jun-17 19:31N 39°59' W 075°06'0 0.0
2018-Jun-17 19:00N 39°59' W 075°06'0 0.0
2018-Jun-17 18:31N 39°59' W 075°06'0 0.0
2018-Jun-17 18:00N 39°59' W 075°06'0 0.0
2018-Jun-17 17:30N 39°59' W 075°06'0 0.0
2018-Jun-17 17:01N 39°59' W 075°06'0 0.0
2018-Jun-17 16:30N 39°59' W 075°06'0 0.0
2018-Jun-17 16:00N 39°59' W 075°06'0 0.0
2018-Jun-17 15:30N 39°59' W 075°06'0 0.0
2018-Jun-17 15:00N 39°59' W 075°06'0 0.0
2018-Jun-17 14:30N 39°59' W 075°06'0 0.0
2018-Jun-17 14:01N 39°59' W 075°06'0 0.0
2018-Jun-17 13:30N 39°59' W 075°06'0 0.0
2018-Jun-17 13:00N 39°59' W 075°06'0 0.0
2018-Jun-17 12:30N 39°59' W 075°06'0 0.0
2018-Jun-17 12:00N 39°59' W 075°06'0 0.0
2018-Jun-17 11:30N 39°59' W 075°06'0 0.0
2018-Jun-17 11:00N 39°59' W 075°06'0 0.0
2018-Jun-17 10:30N 39°59' W 075°06'0 0.0
2018-Jun-17 10:00N 39°59' W 075°06'0 0.0
2018-Jun-17 09:30N 39°59' W 075°06'0 0.0
2018-Jun-17 09:00N 39°59' W 075°06'0 0.0
2018-Jun-17 08:30N 39°59' W 075°06'0 0.0
2018-Jun-17 08:01N 39°59' W 075°06'0 0.0
2018-Jun-17 07:31N 39°59' W 075°06'0 0.0
2018-Jun-17 07:01N 39°59' W 075°06'0 0.0
2018-Jun-17 06:30N 39°59' W 075°06'0 0.0
2018-Jun-17 06:01N 39°59' W 075°06'3 6.8
2018-Jun-17 05:30N 39°56' W 075°08'3 6.4
2018-Jun-17 05:01N 39°53' W 075°10'2 4.4
2018-Jun-17 04:30N 39°54' W 075°12'0 0.0
2018-Jun-17 04:00N 39°54' W 075°12'0 0.0
2018-Jun-17 03:31N 39°54' W 075°12'0 0.0
2018-Jun-17 03:01N 39°54' W 075°12'0 0.0
2018-Jun-17 02:31N 39°54' W 075°12'0 0.0
2018-Jun-17 02:00N 39°54' W 075°12'0 0.0
2018-Jun-17 01:30N 39°54' W 075°12'0 0.0
2018-Jun-17 01:01N 39°54' W 075°12'0 0.0
2018-Jun-17 00:30N 39°54' W 075°12'0 0.0
2018-Jun-17 00:01N 39°54' W 075°12'0 0.0
2018-Jun-16 23:30N 39°54' W 075°12'0 0.0
2018-Jun-16 23:00N 39°54' W 075°12'0 0.0
2018-Jun-16 22:30N 39°54' W 075°12'0 0.0
2018-Jun-16 22:00N 39°54' W 075°12'0 0.0
2018-Jun-16 21:30N 39°54' W 075°12'0 0.0
2018-Jun-16 21:00N 39°54' W 075°12'0 0.0
2018-Jun-16 20:30N 39°54' W 075°12'0 0.0
2018-Jun-16 20:00N 39°54' W 075°12'0 0.0
2018-Jun-16 19:30N 39°54' W 075°12'0 0.0
2018-Jun-16 19:00N 39°54' W 075°12'0 0.0
2018-Jun-16 18:30N 39°54' W 075°12'0 0.0
2018-Jun-16 18:00N 39°54' W 075°12'0 0.0
2018-Jun-16 17:30N 39°54' W 075°12'0 0.0
2018-Jun-16 17:00N 39°54' W 075°12'0 0.0
2018-Jun-16 16:30N 39°54' W 075°12'0 0.0
2018-Jun-16 16:00N 39°54' W 075°12'0 0.0
2018-Jun-16 15:30N 39°54' W 075°12'0 0.0
2018-Jun-16 15:00N 39°54' W 075°12'0 0.0
2018-Jun-16 14:30N 39°54' W 075°12'0 0.0
2018-Jun-16 14:00N 39°54' W 075°12'0 0.0
2018-Jun-16 13:31N 39°54' W 075°12'0 0.0
2018-Jun-16 13:00N 39°54' W 075°12'0 0.0
2018-Jun-16 12:30N 39°54' W 075°12'0 0.0
2018-Jun-16 12:00N 39°54' W 075°12'0 0.0
2018-Jun-16 11:30N 39°54' W 075°12'0 0.0
2018-Jun-16 11:00N 39°54' W 075°12'0 0.0
2018-Jun-16 10:30N 39°54' W 075°12'0 0.0
2018-Jun-16 10:00N 39°54' W 075°12'0 0.0
2018-Jun-16 09:30N 39°54' W 075°12'0 0.0
2018-Jun-16 09:00N 39°54' W 075°12'0 0.0
2018-Jun-16 08:30N 39°54' W 075°12'0 0.0
2018-Jun-16 08:00N 39°54' W 075°12'0 0.0
2018-Jun-16 07:30N 39°54' W 075°12'0 0.0
2018-Jun-16 07:00N 39°54' W 075°12'0 0.0
2018-Jun-16 06:30N 39°54' W 075°12'0 0.0
2018-Jun-16 06:00N 39°54' W 075°12'0 0.0
2018-Jun-16 05:30N 39°54' W 075°12'0 0.0
2018-Jun-16 05:00N 39°54' W 075°12'0 0.0
2018-Jun-16 04:30N 39°54' W 075°12'0 0.0
2018-Jun-16 04:00N 39°54' W 075°12'0 0.0
2018-Jun-16 03:30N 39°54' W 075°12'0 0.0
2018-Jun-16 03:01N 39°54' W 075°12'0 0.0
2018-Jun-16 02:31N 39°54' W 075°12'0 0.0
2018-Jun-16 02:00N 39°54' W 075°12'0 0.0
2018-Jun-16 01:30N 39°54' W 075°12'0 0.0
2018-Jun-16 01:01N 39°54' W 075°12'0 0.0
2018-Jun-16 00:30N 39°54' W 075°12'0 0.0
2018-Jun-16 00:00N 39°54' W 075°12'0 0.0
2018-Jun-15 23:30N 39°54' W 075°12'0 0.0
2018-Jun-15 23:00N 39°54' W 075°12'0 0.0
2018-Jun-15 22:30N 39°54' W 075°12'0 0.0
2018-Jun-15 22:01N 39°54' W 075°12'1 1.1
2018-Jun-15 21:31N 39°53' W 075°12'4 7.5
2018-Jun-15 21:00N 39°51' W 075°15'4 8.2
2018-Jun-15 20:30N 39°51' W 075°21'4 6.1
2018-Jun-15 19:54N 39°49' W 075°25'0 0.0
2018-Jun-15 19:30N 39°49' W 075°25'0 0.0
2018-Jun-15 19:01N 39°49' W 075°25'0 0.0
2018-Jun-15 18:30N 39°49' W 075°25'0 0.0
2018-Jun-15 18:00N 39°49' W 075°25'0 0.0
2018-Jun-15 17:30N 39°49' W 075°25'0 0.0
2018-Jun-15 17:00N 39°49' W 075°25'0 0.0
2018-Jun-15 16:30N 39°49' W 075°25'0 0.0
2018-Jun-15 16:00N 39°49' W 075°25'0 0.0
2018-Jun-15 15:30N 39°49' W 075°25'0 0.0
2018-Jun-15 15:01N 39°49' W 075°25'0 0.0
2018-Jun-15 14:30N 39°49' W 075°25'0 0.0
2018-Jun-15 14:01N 39°49' W 075°25'0 0.0
2018-Jun-15 13:30N 39°49' W 075°25'0 0.0
2018-Jun-15 13:00N 39°49' W 075°25'0 0.0
2018-Jun-15 12:30N 39°49' W 075°25'1 1.1
2018-Jun-15 12:00N 39°48' W 075°25'0 0.0
2018-Jun-15 11:30N 39°48' W 075°25'4 8.3
2018-Jun-15 11:00N 39°51' W 075°21'5 9.0
2018-Jun-15 10:30N 39°51' W 075°15'4 7.3
2018-Jun-15 10:01N 39°54' W 075°12'0 0.0
2018-Jun-15 09:30N 39°54' W 075°12'0 0.0
2018-Jun-15 09:00N 39°54' W 075°12'0 0.0
2018-Jun-15 08:30N 39°54' W 075°12'0 0.0
2018-Jun-15 08:00N 39°54' W 075°12'0 0.0
2018-Jun-15 07:30N 39°54' W 075°12'0 0.0
2018-Jun-15 07:00N 39°54' W 075°12'0 0.0
2018-Jun-15 06:30N 39°54' W 075°12'0 0.0
2018-Jun-15 06:00N 39°54' W 075°12'0 0.0
2018-Jun-15 05:30N 39°54' W 075°12'0 0.0
2018-Jun-15 05:00N 39°54' W 075°12'0 0.0
2018-Jun-15 04:30N 39°54' W 075°12'0 0.1
2018-Jun-15 04:00N 39°53' W 075°12'0 0.0
2018-Jun-15 03:30N 39°53' W 075°12'0 0.0
2018-Jun-15 03:00N 39°53' W 075°12'3 5.2
2018-Jun-15 02:30N 39°54' W 075°08'2 4.0
2018-Jun-15 02:00N 39°53' W 075°11'1 2.9
2018-Jun-15 01:30N 39°54' W 075°12'0 0.0
2018-Jun-15 01:00N 39°54' W 075°12'0 0.0
2018-Jun-15 00:30N 39°54' W 075°12'0 0.0
2018-Jun-15 00:00N 39°54' W 075°12'  

Dump ship's entire track history